sensor_id;sensor_type;location;lat;lon;timestamp;P1;durP1;ratioP1;P2;durP2;ratioP2
57339;SDS011;43174;50.930;18.170;2022-11-20T00:09:02;28.00;;;24.40;;
57339;SDS011;43174;50.930;18.170;2022-11-20T00:18:44;29.70;;;25.30;;
57339;SDS011;43174;50.930;18.170;2022-11-20T00:21:11;78.10;;;41.30;;
57339;SDS011;43174;50.930;18.170;2022-11-20T00:31:00;68.90;;;33.80;;
57339;SDS011;43174;50.930;18.170;2022-11-20T00:40:41;59.10;;;29.50;;
57339;SDS011;43174;50.930;18.170;2022-11-20T00:50:22;95.90;;;35.70;;
57339;SDS011;43174;50.930;18.170;2022-11-20T01:00:04;60.00;;;33.70;;
57339;SDS011;43174;50.930;18.170;2022-11-20T01:09:46;65.10;;;35.60;;
57339;SDS011;43174;50.930;18.170;2022-11-20T01:26:44;72.10;;;34.20;;
57339;SDS011;43174;50.930;18.170;2022-11-20T01:36:27;63.60;;;38.00;;
57339;SDS011;43174;50.930;18.170;2022-11-20T01:46:29;39.60;;;24.40;;
57339;SDS011;43174;50.930;18.170;2022-11-20T01:56:11;73.30;;;31.20;;
57339;SDS011;43174;50.930;18.170;2022-11-20T02:05:57;73.60;;;37.40;;
57339;SDS011;43174;50.930;18.170;2022-11-20T02:16:01;74.50;;;37.80;;
57339;SDS011;43174;50.930;18.170;2022-11-20T02:25:42;52.00;;;31.60;;
57339;SDS011;43174;50.930;18.170;2022-11-20T02:45:06;48.90;;;32.70;;
57339;SDS011;43174;50.930;18.170;2022-11-20T02:54:47;40.70;;;20.60;;
57339;SDS011;43174;50.930;18.170;2022-11-20T03:04:30;45.50;;;33.30;;
57339;SDS011;43174;50.930;18.170;2022-11-20T03:14:12;49.10;;;34.90;;
57339;SDS011;43174;50.930;18.170;2022-11-20T03:23:55;58.60;;;32.10;;
57339;SDS011;43174;50.930;18.170;2022-11-20T03:33:37;32.90;;;23.40;;
57339;SDS011;43174;50.930;18.170;2022-11-20T03:43:18;88.90;;;38.80;;
57339;SDS011;43174;50.930;18.170;2022-11-20T03:53:00;81.00;;;34.90;;
57339;SDS011;43174;50.930;18.170;2022-11-20T04:02:41;59.30;;;28.60;;
57339;SDS011;43174;50.930;18.170;2022-11-20T04:19:39;66.90;;;39.60;;
57339;SDS011;43174;50.930;18.170;2022-11-20T04:29:20;63.10;;;32.20;;
57339;SDS011;43174;50.930;18.170;2022-11-20T04:39:03;98.50;;;42.30;;
57339;SDS011;43174;50.930;18.170;2022-11-20T04:48:49;111.30;;;43.90;;
57339;SDS011;43174;50.930;18.170;2022-11-20T04:58:30;78.50;;;46.00;;
57339;SDS011;43174;50.930;18.170;2022-11-20T05:08:12;58.50;;;39.80;;
57339;SDS011;43174;50.930;18.170;2022-11-20T05:17:53;81.80;;;49.70;;
57339;SDS011;43174;50.930;18.170;2022-11-20T05:27:35;75.20;;;39.10;;
57339;SDS011;43174;50.930;18.170;2022-11-20T05:37:16;127.80;;;50.30;;
57339;SDS011;43174;50.930;18.170;2022-11-20T05:47:17;129.90;;;56.80;;
57339;SDS011;43174;50.930;18.170;2022-11-20T05:56:58;69.90;;;28.70;;
57339;SDS011;43174;50.930;18.170;2022-11-20T06:06:39;80.90;;;48.20;;
57339;SDS011;43174;50.930;18.170;2022-11-20T06:16:21;100.00;;;36.10;;
57339;SDS011;43174;50.930;18.170;2022-11-20T06:26:03;57.30;;;33.50;;
57339;SDS011;43174;50.930;18.170;2022-11-20T06:35:45;103.70;;;54.40;;
57339;SDS011;43174;50.930;18.170;2022-11-20T06:52:43;127.70;;;51.30;;
57339;SDS011;43174;50.930;18.170;2022-11-20T07:02:26;114.70;;;51.90;;
57339;SDS011;43174;50.930;18.170;2022-11-20T07:12:07;88.50;;;38.70;;
57339;SDS011;43174;50.930;18.170;2022-11-20T07:21:49;99.70;;;45.10;;
57339;SDS011;43174;50.930;18.170;2022-11-20T07:38:47;149.60;;;57.60;;
57339;SDS011;43174;50.930;18.170;2022-11-20T07:48:29;119.20;;;55.70;;
57339;SDS011;43174;50.930;18.170;2022-11-20T07:58:12;132.40;;;60.70;;
57339;SDS011;43174;50.930;18.170;2022-11-20T08:07:55;98.20;;;66.80;;
57339;SDS011;43174;50.930;18.170;2022-11-20T08:18:03;140.30;;;71.80;;
57339;SDS011;43174;50.930;18.170;2022-11-20T08:27:44;133.60;;;84.70;;
57339;SDS011;43174;50.930;18.170;2022-11-20T08:44:44;71.70;;;46.60;;
57339;SDS011;43174;50.930;18.170;2022-11-20T09:01:42;94.20;;;67.00;;
57339;SDS011;43174;50.930;18.170;2022-11-20T09:11:25;92.60;;;67.10;;
57339;SDS011;43174;50.930;18.170;2022-11-20T09:21:09;76.60;;;59.70;;
57339;SDS011;43174;50.930;18.170;2022-11-20T09:30:52;71.50;;;50.20;;
57339;SDS011;43174;50.930;18.170;2022-11-20T09:40:37;79.60;;;62.70;;
57339;SDS011;43174;50.930;18.170;2022-11-20T09:50:26;81.80;;;60.30;;
57339;SDS011;43174;50.930;18.170;2022-11-20T10:00:09;59.90;;;44.50;;
57339;SDS011;43174;50.930;18.170;2022-11-20T10:09:53;40.90;;;36.40;;
57339;SDS011;43174;50.930;18.170;2022-11-20T10:31:50;44.10;;;38.00;;
57339;SDS011;43174;50.930;18.170;2022-11-20T10:41:38;59.30;;;43.70;;
57339;SDS011;43174;50.930;18.170;2022-11-20T10:51:35;61.20;;;37.60;;
57339;SDS011;43174;50.930;18.170;2022-11-20T11:01:19;49.30;;;39.10;;
57339;SDS011;43174;50.930;18.170;2022-11-20T11:11:23;65.40;;;49.10;;
57339;SDS011;43174;50.930;18.170;2022-11-20T11:21:08;61.00;;;43.90;;
57339;SDS011;43174;50.930;18.170;2022-11-20T11:30:51;39.20;;;34.60;;
57339;SDS011;43174;50.930;18.170;2022-11-20T11:40:33;45.60;;;40.60;;
57339;SDS011;43174;50.930;18.170;2022-11-20T11:50:23;38.50;;;33.70;;
57339;SDS011;43174;50.930;18.170;2022-11-20T12:00:09;38.10;;;34.20;;
57339;SDS011;43174;50.930;18.170;2022-11-20T12:09:52;58.60;;;43.00;;
57339;SDS011;43174;50.930;18.170;2022-11-20T12:19:35;52.90;;;34.70;;
57339;SDS011;43174;50.930;18.170;2022-11-20T12:49:38;36.60;;;22.70;;
57339;SDS011;43174;50.930;18.170;2022-11-20T12:59:32;43.90;;;29.50;;
57339;SDS011;43174;50.930;18.170;2022-11-20T13:09:16;59.70;;;35.60;;
57339;SDS011;43174;50.930;18.170;2022-11-20T13:19:03;52.70;;;32.30;;
57339;SDS011;43174;50.930;18.170;2022-11-20T13:36:06;54.30;;;29.60;;
57339;SDS011;43174;50.930;18.170;2022-11-20T13:45:56;47.70;;;27.50;;
57339;SDS011;43174;50.930;18.170;2022-11-20T13:55:40;42.30;;;24.90;;
57339;SDS011;43174;50.930;18.170;2022-11-20T14:05:24;60.90;;;27.10;;
57339;SDS011;43174;50.930;18.170;2022-11-20T14:15:05;44.10;;;18.40;;
57339;SDS011;43174;50.930;18.170;2022-11-20T14:24:47;59.90;;;29.30;;
57339;SDS011;43174;50.930;18.170;2022-11-20T14:34:33;41.80;;;23.50;;
57339;SDS011;43174;50.930;18.170;2022-11-20T14:44:20;59.50;;;30.80;;
57339;SDS011;43174;50.930;18.170;2022-11-20T15:04:08;74.20;;;30.10;;
57339;SDS011;43174;50.930;18.170;2022-11-20T15:13:51;40.80;;;31.40;;
57339;SDS011;43174;50.930;18.170;2022-11-20T15:23:32;56.70;;;32.30;;
57339;SDS011;43174;50.930;18.170;2022-11-20T15:33:15;64.00;;;35.00;;
57339;SDS011;43174;50.930;18.170;2022-11-20T15:42:57;96.10;;;33.50;;
57339;SDS011;43174;50.930;18.170;2022-11-20T15:52:45;58.30;;;32.10;;
57339;SDS011;43174;50.930;18.170;2022-11-20T16:02:26;44.50;;;32.80;;
57339;SDS011;43174;50.930;18.170;2022-11-20T16:12:09;37.00;;;26.60;;
57339;SDS011;43174;50.930;18.170;2022-11-20T16:29:49;50.00;;;34.80;;
57339;SDS011;43174;50.930;18.170;2022-11-20T16:39:31;76.30;;;35.70;;
57339;SDS011;43174;50.930;18.170;2022-11-20T16:49:13;53.40;;;28.70;;
57339;SDS011;43174;50.930;18.170;2022-11-20T16:58:55;78.90;;;38.60;;
57339;SDS011;43174;50.930;18.170;2022-11-20T17:08:38;41.40;;;26.00;;
57339;SDS011;43174;50.930;18.170;2022-11-20T17:18:19;64.50;;;31.30;;
57339;SDS011;43174;50.930;18.170;2022-11-20T17:28:01;22.10;;;15.90;;
57339;SDS011;43174;50.930;18.170;2022-11-20T17:37:47;36.20;;;21.20;;
57339;SDS011;43174;50.930;18.170;2022-11-20T17:47:30;31.10;;;23.00;;
57339;SDS011;43174;50.930;18.170;2022-11-20T17:57:13;39.90;;;21.70;;
57339;SDS011;43174;50.930;18.170;2022-11-20T18:07:14;57.00;;;29.70;;
57339;SDS011;43174;50.930;18.170;2022-11-20T18:17:14;65.60;;;29.80;;
57339;SDS011;43174;50.930;18.170;2022-11-20T18:26:57;80.40;;;40.00;;
57339;SDS011;43174;50.930;18.170;2022-11-20T18:36:40;58.60;;;35.10;;
57339;SDS011;43174;50.930;18.170;2022-11-20T18:47:00;125.80;;;35.90;;
57339;SDS011;43174;50.930;18.170;2022-11-20T18:56:43;92.30;;;25.00;;
57339;SDS011;43174;50.930;18.170;2022-11-20T19:06:25;57.30;;;31.20;;
57339;SDS011;43174;50.930;18.170;2022-11-20T19:16:12;44.80;;;31.10;;
57339;SDS011;43174;50.930;18.170;2022-11-20T19:25:57;62.50;;;28.80;;
57339;SDS011;43174;50.930;18.170;2022-11-20T19:35:41;44.30;;;31.30;;
57339;SDS011;43174;50.930;18.170;2022-11-20T19:38:07;77.70;;;40.50;;
57339;SDS011;43174;50.930;18.170;2022-11-20T19:47:56;67.20;;;36.90;;
57339;SDS011;43174;50.930;18.170;2022-11-20T19:57:40;52.30;;;28.30;;
57339;SDS011;43174;50.930;18.170;2022-11-20T20:07:26;50.10;;;31.30;;
57339;SDS011;43174;50.930;18.170;2022-11-20T20:17:08;43.70;;;25.90;;
57339;SDS011;43174;50.930;18.170;2022-11-20T20:26:51;44.40;;;24.60;;
57339;SDS011;43174;50.930;18.170;2022-11-20T20:36:37;43.00;;;26.70;;
57339;SDS011;43174;50.930;18.170;2022-11-20T20:46:38;35.10;;;22.00;;
57339;SDS011;43174;50.930;18.170;2022-11-20T20:56:22;46.20;;;24.80;;
57339;SDS011;43174;50.930;18.170;2022-11-20T21:06:05;44.80;;;23.00;;
57339;SDS011;43174;50.930;18.170;2022-11-20T21:15:48;37.60;;;26.20;;
57339;SDS011;43174;50.930;18.170;2022-11-20T21:33:05;50.00;;;23.40;;
57339;SDS011;43174;50.930;18.170;2022-11-20T21:42:47;53.80;;;28.90;;
57339;SDS011;43174;50.930;18.170;2022-11-20T21:52:29;68.00;;;31.20;;
57339;SDS011;43174;50.930;18.170;2022-11-20T22:02:11;37.60;;;24.30;;
57339;SDS011;43174;50.930;18.170;2022-11-20T22:11:56;54.40;;;27.10;;
57339;SDS011;43174;50.930;18.170;2022-11-20T22:21:39;18.80;;;17.50;;
57339;SDS011;43174;50.930;18.170;2022-11-20T22:31:22;30.50;;;21.20;;
57339;SDS011;43174;50.930;18.170;2022-11-20T22:41:05;50.20;;;27.90;;
57339;SDS011;43174;50.930;18.170;2022-11-20T22:58:04;55.90;;;29.80;;
57339;SDS011;43174;50.930;18.170;2022-11-20T23:07:45;59.50;;;27.10;;
57339;SDS011;43174;50.930;18.170;2022-11-20T23:17:28;66.90;;;31.30;;
57339;SDS011;43174;50.930;18.170;2022-11-20T23:27:10;47.20;;;26.50;;
57339;SDS011;43174;50.930;18.170;2022-11-20T23:36:52;21.60;;;19.30;;
57339;SDS011;43174;50.930;18.170;2022-11-20T23:46:33;51.40;;;28.60;;
57339;SDS011;43174;50.930;18.170;2022-11-20T23:56:15;49.40;;;31.70;;
